Time;durP1;ratioP1;P1;durP2;ratioP2;P2;SDS_P1;SDS_P2;PMS_P1;PMS_P2;Temp;Humidity;BMP_temperature;BMP_pressure;BME280_temperature;BME280_humidity;BME280_pressure;Samples;Min_cycle;Max_cycle;Signal;HPM_P1;HPM_P2
2023/03/04 00:00:15;;;;;;;59.45;32.67;;;;;;;1.11;100.00;101712.28;683900;28;1228;-61
2023/03/04 00:00:36;;;;;;;56.80;31.92;;;;;;;1.21;100.00;101711.06;684661;28;1343;-60
2023/03/04 00:00:56;;;;;;;55.77;32.60;;;;;;;1.22;100.00;101707.66;682805;28;4715;-61
2023/03/04 00:01:17;;;;;;;58.53;33.50;;;;;;;1.21;100.00;101711.94;689625;28;1196;-61
2023/03/04 00:01:37;;;;;;;60.30;33.10;;;;;;;1.22;100.00;101711.16;687149;28;1370;-61
2023/03/04 00:01:58;;;;;;;58.43;32.37;;;;;;;1.23;100.00;101722.31;685530;28;1266;-61
2023/03/04 00:02:18;;;;;;;60.70;32.73;;;;;;;1.21;100.00;101711.94;685822;28;1160;-61
2023/03/04 00:02:38;;;;;;;64.50;33.17;;;;;;;1.17;100.00;101712.59;687293;28;1262;-61
2023/03/04 00:02:59;;;;;;;64.05;33.38;;;;;;;1.14;100.00;101709.88;686636;28;1204;-61
2023/03/04 00:03:19;;;;;;;60.50;32.67;;;;;;;1.10;100.00;101703.69;686557;28;1406;-61
2023/03/04 00:03:39;;;;;;;60.60;32.92;;;;;;;1.09;100.00;101711.31;687407;28;1073;-62
2023/03/04 00:04:00;;;;;;;60.30;32.97;;;;;;;1.07;100.00;101712.94;686873;28;4378;-60
2023/03/04 00:04:20;;;;;;;59.67;33.10;;;;;;;1.05;100.00;101706.81;685378;28;2528;-61
2023/03/04 00:04:40;;;;;;;61.83;32.60;;;;;;;1.05;100.00;101706.81;687155;28;1339;-61
2023/03/04 00:05:02;;;;;;;59.20;32.90;;;;;;;1.02;100.00;101713.59;686430;28;1438;-61
2023/03/04 00:05:23;;;;;;;57.40;32.90;;;;;;;1.02;100.00;101708.47;685631;28;1081;-61
2023/03/04 00:05:43;;;;;;;57.97;32.22;;;;;;;1.01;100.00;101709.25;687116;28;1153;-61
2023/03/04 00:06:04;;;;;;;60.10;33.07;;;;;;;1.00;100.00;101704.91;686005;28;2083;-61
2023/03/04 00:06:24;;;;;;;62.30;33.67;;;;;;;0.99;100.00;101705.69;685140;28;2295;-61
2023/03/04 00:06:45;;;;;;;59.47;32.53;;;;;;;0.99;100.00;101704.81;686147;28;4379;-61
2023/03/04 00:07:05;;;;;;;59.27;33.10;;;;;;;1.02;100.00;101710.13;686840;28;1200;-61
2023/03/04 00:07:26;;;;;;;61.05;32.03;;;;;;;1.04;100.00;101705.94;686215;28;1218;-61
2023/03/04 00:07:46;;;;;;;62.40;33.30;;;;;;;1.06;100.00;101704.31;687281;28;1184;-61
2023/03/04 00:08:06;;;;;;;60.75;32.95;;;;;;;1.09;100.00;101707.03;686855;28;1226;-60
2023/03/04 00:08:27;;;;;;;59.83;33.40;;;;;;;1.06;100.00;101703.44;688115;28;1095;-59
2023/03/04 00:08:47;;;;;;;59.43;33.50;;;;;;;1.04;100.00;101703.38;690012;28;1223;-61
2023/03/04 00:09:07;;;;;;;58.45;32.45;;;;;;;1.03;100.00;101704.19;689982;28;1234;-62
2023/03/04 00:09:28;;;;;;;60.97;32.77;;;;;;;1.01;100.00;101703.19;687279;28;1097;-61
2023/03/04 00:09:48;;;;;;;61.95;32.72;;;;;;;1.02;100.00;101707.53;686872;28;4546;-61
2023/03/04 00:10:10;;;;;;;60.17;32.67;;;;;;;1.00;100.00;101707.47;687662;28;1160;-60
2023/03/04 00:10:30;;;;;;;59.15;32.55;;;;;;;0.99;100.00;101705.69;685723;28;1184;-61
2023/03/04 00:10:50;;;;;;;62.50;33.57;;;;;;;0.98;100.00;101698.81;686785;28;3041;-61
2023/03/04 00:11:11;;;;;;;60.75;33.00;;;;;;;0.97;100.00;101709.91;686759;28;1918;-60
2023/03/04 00:11:31;;;;;;;60.13;33.03;;;;;;;0.98;100.00;101703.06;687386;28;1139;-61
2023/03/04 00:11:51;;;;;;;60.60;32.95;;;;;;;0.98;100.00;101706.53;685875;28;1138;-61
2023/03/04 00:12:12;;;;;;;62.53;33.30;;;;;;;0.98;100.00;101703.06;686844;28;1065;-61
2023/03/04 00:12:32;;;;;;;62.40;33.93;;;;;;;0.96;100.00;101705.53;686775;28;1206;-60
2023/03/04 00:12:53;;;;;;;61.50;34.50;;;;;;;0.98;100.00;101703.94;683912;28;4514;-61
2023/03/04 00:13:13;;;;;;;63.63;34.40;;;;;;;0.99;100.00;101704.81;684253;28;1228;-60
2023/03/04 00:13:34;;;;;;;61.72;32.80;;;;;;;1.01;100.00;101708.34;682057;28;1355;-61
2023/03/04 00:13:54;;;;;;;60.45;33.20;;;;;;;1.01;100.00;101708.34;684608;28;1223;-60
2023/03/04 00:14:15;;;;;;;61.10;33.90;;;;;;;1.02;100.00;101705.88;683829;28;2709;-61
2023/03/04 00:14:35;;;;;;;61.60;34.22;;;;;;;1.02;100.00;101705.88;681583;28;1664;-61
2023/03/04 00:14:56;;;;;;;62.43;34.97;;;;;;;1.01;100.00;101704.09;684222;28;1281;-61
2023/03/04 00:15:16;;;;;;;61.42;34.28;;;;;;;1.00;100.00;101701.44;682456;28;1153;-60
2023/03/04 00:15:36;;;;;;;61.07;33.63;;;;;;;0.97;100.00;101706.41;684777;28;1327;-61
2023/03/04 00:15:57;;;;;;;61.70;33.43;;;;;;;0.97;100.00;101707.31;686346;28;4424;-60
2023/03/04 00:16:17;;;;;;;61.22;33.08;;;;;;;0.96;100.00;101702.97;684333;28;1137;-61
2023/03/04 00:16:37;;;;;;;60.50;32.63;;;;;;;0.97;100.00;101704.75;687274;28;1283;-61
2023/03/04 00:16:58;;;;;;;60.05;33.80;;;;;;;0.97;100.00;101704.75;683069;28;2674;-61
2023/03/04 00:17:18;;;;;;;62.10;33.77;;;;;;;0.97;100.00;101698.69;686760;28;1211;-61
2023/03/04 00:17:38;;;;;;;62.63;33.60;;;;;;;0.97;100.00;101702.19;683409;28;1141;-61
2023/03/04 00:17:59;;;;;;;62.67;33.77;;;;;;;0.96;100.00;101702.97;683614;28;1331;-61
2023/03/04 00:18:20;;;;;;;62.70;34.60;;;;;;;0.96;100.00;101709.81;684073;28;1338;-61
2023/03/04 00:18:40;;;;;;;62.97;34.47;;;;;;;0.98;100.00;101703.06;684208;28;1217;-60
2023/03/04 00:19:00;;;;;;;60.88;32.58;;;;;;;1.00;100.00;101707.47;686304;28;4548;-60
2023/03/04 00:19:21;;;;;;;60.90;32.97;;;;;;;1.00;100.00;101702.31;685475;28;1350;-60
2023/03/04 00:19:41;;;;;;;61.55;33.17;;;;;;;0.99;100.00;101697.97;687390;28;1327;-60
2023/03/04 00:20:02;;;;;;;64.77;34.07;;;;;;;0.97;100.00;101701.28;687394;28;3504;-61
2023/03/04 00:20:22;;;;;;;61.65;33.53;;;;;;;0.96;100.00;101699.53;687049;28;1458;-61
2023/03/04 00:20:43;;;;;;;61.20;34.00;;;;;;;0.99;100.00;101700.53;686259;28;2750;-60
2023/03/04 00:21:03;;;;;;;64.17;34.07;;;;;;;1.05;100.00;101705.13;686641;28;1149;-60
2023/03/04 00:21:24;;;;;;;63.25;33.88;;;;;;;1.07;100.00;101703.53;686370;28;1116;-61
2023/03/04 00:21:44;;;;;;;62.23;33.83;;;;;;;1.10;100.00;101706.25;686277;28;4480;-61
2023/03/04 00:22:04;;;;;;;60.57;33.77;;;;;;;1.13;100.00;101705.53;684158;28;1008;-60
2023/03/04 00:22:25;;;;;;;60.03;33.70;;;;;;;1.13;100.00;101702.94;683496;28;1054;-61
2023/03/04 00:22:45;;;;;;;59.87;33.20;;;;;;;1.12;100.00;101702.06;684764;28;1161;-61
2023/03/04 00:23:05;;;;;;;61.85;33.38;;;;;;;1.12;100.00;101707.22;684500;28;1239;-61
2023/03/04 00:23:26;;;;;;;60.20;33.43;;;;;;;1.07;100.00;101705.22;684403;28;1243;-61
2023/03/04 00:23:46;;;;;;;61.78;33.45;;;;;;;1.05;100.00;101705.13;684764;28;1203;-61
2023/03/04 00:24:07;;;;;;;61.80;33.67;;;;;;;1.06;100.00;101706.03;684734;28;1166;-61
2023/03/04 00:24:27;;;;;;;64.57;34.80;;;;;;;1.06;100.00;101701.75;683673;28;2646;-61
2023/03/04 00:24:47;;;;;;;62.37;33.83;;;;;;;1.09;100.00;101708.75;681131;29;5007;-61
2023/03/04 00:25:08;;;;;;;62.03;33.43;;;;;;;1.12;100.00;101706.31;681338;29;1184;-61
2023/03/04 00:25:28;;;;;;;65.13;34.70;;;;;;;1.16;100.00;101705.66;681445;29;1107;-60
2023/03/04 00:25:49;;;;;;;63.20;33.90;;;;;;;1.17;100.00;101699.72;681713;28;1133;-60
2023/03/04 00:26:09;;;;;;;62.37;33.50;;;;;;;1.15;100.00;101704.78;686892;28;1347;-61
2023/03/04 00:26:30;;;;;;;61.97;33.40;;;;;;;1.11;100.00;101708.03;684108;28;1500;-60
2023/03/04 00:26:50;;;;;;;61.83;34.27;;;;;;;1.09;100.00;101704.47;687278;28;1140;-61
2023/03/04 00:27:10;;;;;;;64.47;33.75;;;;;;;1.05;100.00;101697.41;685887;28;2943;-61
2023/03/04 00:27:31;;;;;;;62.80;34.27;;;;;;;1.01;100.00;101701.53;687152;28;1231;-61
2023/03/04 00:27:51;;;;;;;62.30;34.37;;;;;;;1.00;100.00;101704.91;686729;28;4609;-60
2023/03/04 00:28:11;;;;;;;61.47;34.13;;;;;;;1.01;100.00;101704.09;684364;28;1173;-60
2023/03/04 00:28:32;;;;;;;61.35;33.83;;;;;;;1.00;100.00;101699.75;684396;28;1326;-61
2023/03/04 00:28:53;;;;;;;60.90;34.23;;;;;;;1.00;100.00;101699.75;684173;28;1190;-61
2023/03/04 00:29:14;;;;;;;60.95;33.00;;;;;;;1.00;100.00;101702.31;681429;29;1260;-61
2023/03/04 00:29:34;;;;;;;65.30;33.47;;;;;;;1.00;100.00;101709.19;678411;29;2588;-60
2023/03/04 00:29:55;;;;;;;65.93;34.73;;;;;;;0.99;100.00;101700.53;678799;29;1000;-61
2023/03/04 00:30:16;;;;;;;62.45;34.25;;;;;;;0.97;100.00;101694.44;678654;29;1039;-61
2023/03/04 00:30:36;;;;;;;62.80;33.78;;;;;;;0.97;100.00;101702.19;682184;28;1161;-61
2023/03/04 00:30:56;;;;;;;63.80;34.20;;;;;;;0.98;100.00;101698.81;681644;28;4668;-61
2023/03/04 00:31:17;;;;;;;63.78;34.65;;;;;;;0.98;100.00;101703.94;683387;28;1914;-60
2023/03/04 00:31:37;;;;;;;64.17;34.77;;;;;;;0.99;100.00;101700.53;684088;28;1314;-60
2023/03/04 00:31:57;;;;;;;64.22;34.13;;;;;;;0.99;100.00;101700.53;684080;28;1263;-61
2023/03/04 00:32:18;;;;;;;65.07;34.97;;;;;;;0.99;100.00;101697.97;681241;28;2561;-61
2023/03/04 00:32:38;;;;;;;64.43;34.50;;;;;;;1.05;100.00;101706.81;682096;28;1252;-61
2023/03/04 00:32:59;;;;;;;59.47;33.63;;;;;;;1.10;100.00;101702.81;684404;28;1524;-61
2023/03/04 00:33:19;;;;;;;61.50;33.87;;;;;;;1.13;100.00;101702.94;681770;28;1177;-61
2023/03/04 00:33:42;;;;;;;62.10;33.88;;;;;;;1.12;100.00;101703.75;681726;29;1308;-61
2023/03/04 00:34:03;;;;;;;59.85;33.15;;;;;;;1.09;100.00;101706.16;678596;29;4700;-60
2023/03/04 00:34:23;;;;;;;61.33;32.92;;;;;;;1.06;100.00;101699.19;681467;28;1100;-61
2023/03/04 00:34:43;;;;;;;57.93;33.03;;;;;;;1.06;100.00;101695.72;682025;29;1256;-60
2023/03/04 00:35:05;;;;;;;60.40;33.38;;;;;;;1.08;100.00;101702.72;679540;29;1231;-60
2023/03/04 00:35:26;;;;;;;60.22;33.42;;;;;;;1.10;100.00;101700.22;682379;28;1037;-61
2023/03/04 00:35:47;;;;;;;61.63;34.13;;;;;;;1.10;100.00;101703.69;682175;28;1276;-60
2023/03/04 00:36:08;;;;;;;63.20;35.03;;;;;;;1.10;100.00;101695.94;681188;29;2787;-60
2023/03/04 00:36:28;;;;;;;65.10;34.90;;;;;;;1.11;100.00;101694.25;681426;29;1070;-60
2023/03/04 00:36:49;;;;;;;62.42;34.20;;;;;;;1.12;100.00;101698.59;682161;28;5041;-61
2023/03/04 00:37:11;;;;;;;61.60;33.58;;;;;;;1.16;100.00;101697.94;684515;28;914;-61
2023/03/04 00:37:31;;;;;;;64.63;33.33;;;;;;;1.19;100.00;101695.50;684956;28;1039;-61
2023/03/04 00:37:51;;;;;;;62.00;33.22;;;;;;;1.20;100.00;101699.88;685031;28;1321;-61
2023/03/04 00:38:12;;;;;;;60.00;33.67;;;;;;;1.22;100.00;101694.78;684534;28;1684;-60
2023/03/04 00:38:32;;;;;;;60.20;32.77;;;;;;;1.25;100.00;101703.56;681758;28;1144;-60
2023/03/04 00:38:52;;;;;;;59.05;32.60;;;;;;;1.26;100.00;101696.72;681973;29;4968;-61
2023/03/04 00:39:13;;;;;;;58.73;32.40;;;;;;;1.25;100.00;101700.13;681746;29;1008;-60
2023/03/04 00:39:33;;;;;;;62.45;32.83;;;;;;;1.23;100.00;101697.44;679663;29;1440;-60
2023/03/04 00:39:54;;;;;;;62.40;33.53;;;;;;;1.21;100.00;101699.06;681174;28;4338;-61
2023/03/04 00:40:14;;;;;;;61.97;33.90;;;;;;;1.19;100.00;101698.09;684016;28;1224;-60
2023/03/04 00:40:35;;;;;;;64.43;34.08;;;;;;;1.16;100.00;101692.78;684640;28;2709;-61
2023/03/04 00:40:55;;;;;;;64.27;35.00;;;;;;;1.13;100.00;101692.66;684690;28;917;-61
2023/03/04 00:41:16;;;;;;;65.38;34.72;;;;;;;1.10;100.00;101697.66;681338;28;1423;-61
2023/03/04 00:41:36;;;;;;;66.07;34.73;;;;;;;1.07;100.00;101693.22;683097;28;991;-60
2023/03/04 00:41:57;;;;;;;64.85;34.75;;;;;;;1.06;100.00;101685.44;681667;29;845;-61
2023/03/04 00:42:17;;;;;;;63.80;34.57;;;;;;;1.07;100.00;101692.34;679896;28;1410;-61
2023/03/04 00:42:38;;;;;;;64.80;34.40;;;;;;;1.07;100.00;101697.50;679492;29;1261;-61
2023/03/04 00:42:58;;;;;;;63.22;34.75;;;;;;;1.05;100.00;101683.66;677264;29;4470;-61
2023/03/04 00:43:19;;;;;;;62.73;34.27;;;;;;;1.02;100.00;101693.00;678247;29;2754;-61
2023/03/04 00:43:39;;;;;;;64.95;34.90;;;;;;;1.01;100.00;101683.50;679934;29;1165;-61
2023/03/04 00:43:59;;;;;;;64.83;34.50;;;;;;;1.02;100.00;101689.53;682618;28;833;-61
2023/03/04 00:44:20;;;;;;;63.92;34.20;;;;;;;1.02;100.00;101692.09;684981;28;1087;-60
2023/03/04 00:44:40;;;;;;;64.87;34.77;;;;;;;1.01;100.00;101693.81;688177;28;813;-60
2023/03/04 00:45:01;;;;;;;61.72;34.17;;;;;;;1.00;100.00;101692.03;690362;28;1097;-61
2023/03/04 00:45:22;;;;;;;61.08;34.30;;;;;;;0.99;100.00;101690.25;689327;28;896;-61
2023/03/04 00:45:43;;;;;;;61.60;33.95;;;;;;;1.00;100.00;101683.44;689238;28;1252;-61
2023/03/04 00:46:03;;;;;;;61.10;33.57;;;;;;;0.99;100.00;101687.66;686374;28;4462;-61
2023/03/04 00:46:24;;;;;;;59.95;33.05;;;;;;;1.00;100.00;101688.56;689050;28;925;-61
2023/03/04 00:46:45;;;;;;;61.58;33.88;;;;;;;0.99;100.00;101679.94;688742;28;837;-61
2023/03/04 00:47:05;;;;;;;61.20;33.78;;;;;;;0.97;100.00;101685.81;689805;28;908;-61
2023/03/04 00:47:26;;;;;;;63.33;34.47;;;;;;;0.99;100.00;101684.22;685542;28;893;-61
2023/03/04 00:47:47;;;;;;;66.30;35.15;;;;;;;1.02;100.00;101682.69;689087;28;1123;-61
2023/03/04 00:48:07;;;;;;;63.40;34.97;;;;;;;1.09;100.00;101691.59;689889;28;964;-60
2023/03/04 00:48:27;;;;;;;62.25;34.47;;;;;;;1.11;100.00;101690.00;689829;28;1146;-60
2023/03/04 00:48:48;;;;;;;64.03;34.70;;;;;;;1.14;100.00;101684.13;687320;28;4301;-61
2023/03/04 00:49:08;;;;;;;60.87;33.87;;;;;;;1.15;100.00;101685.88;685050;28;1147;-62
2023/03/04 00:49:28;;;;;;;60.43;33.10;;;;;;;1.16;100.00;101688.53;684666;28;1088;-61
2023/03/04 00:49:49;;;;;;;63.33;34.65;;;;;;;1.18;100.00;101680.88;685315;28;992;-60
2023/03/04 00:50:10;;;;;;;62.63;34.43;;;;;;;1.19;100.00;101682.63;685018;28;1221;-61
2023/03/04 00:50:30;;;;;;;60.55;33.63;;;;;;;1.20;100.00;101684.41;682484;28;1060;-61
2023/03/04 00:50:52;;;;;;;61.40;33.45;;;;;;;1.18;100.00;101683.47;684659;28;2938;-61
2023/03/04 00:51:13;;;;;;;63.63;33.90;;;;;;;1.16;100.00;101687.63;684637;28;1895;-61
2023/03/04 00:51:33;;;;;;;64.27;33.97;;;;;;;1.13;100.00;101685.78;682120;28;1480;-61
2023/03/04 00:51:54;;;;;;;63.47;35.30;;;;;;;1.12;100.00;101685.72;681222;28;4568;-61
2023/03/04 00:52:14;;;;;;;60.97;34.10;;;;;;;1.10;100.00;101683.06;682687;28;973;-61
2023/03/04 00:52:34;;;;;;;63.88;34.58;;;;;;;1.06;100.00;101681.16;687286;28;850;-61
2023/03/04 00:52:55;;;;;;;65.03;34.97;;;;;;;1.08;100.00;101683.78;682626;29;1197;-61
2023/03/04 00:53:15;;;;;;;63.60;33.87;;;;;;;1.07;100.00;101676.91;682123;28;2634;-61
2023/03/04 00:53:37;;;;;;;65.72;34.45;;;;;;;1.10;100.00;101682.19;682364;29;842;-61
2023/03/04 00:53:57;;;;;;;63.58;33.83;;;;;;;1.11;100.00;101682.28;680019;29;1160;-61
2023/03/04 00:54:17;;;;;;;63.27;33.27;;;;;;;1.12;100.00;101685.72;679116;29;1196;-60
2023/03/04 00:54:38;;;;;;;61.35;33.05;;;;;;;1.09;100.00;101678.72;679969;29;1061;-60
2023/03/04 00:54:58;;;;;;;61.23;33.73;;;;;;;1.08;100.00;101679.56;681147;28;4316;-61
2023/03/04 00:55:18;;;;;;;61.87;33.67;;;;;;;1.07;100.00;101682.06;684479;28;1001;-60
2023/03/04 00:55:39;;;;;;;61.47;32.53;;;;;;;1.10;100.00;101677.03;687974;28;778;-61
2023/03/04 00:55:59;;;;;;;63.50;34.00;;;;;;;1.09;100.00;101680.41;687128;28;2770;-61
2023/03/04 00:56:20;;;;;;;64.78;34.92;;;;;;;1.09;100.00;101688.16;687104;28;890;-61
2023/03/04 00:56:40;;;;;;;64.50;34.67;;;;;;;1.08;100.00;101671.81;686646;28;1062;-60
2023/03/04 00:57:00;;;;;;;63.38;34.58;;;;;;;1.09;100.00;101680.41;683093;28;1667;-61
2023/03/04 00:57:21;;;;;;;65.47;35.27;;;;;;;1.06;100.00;101677.69;683763;28;1283;-61
2023/03/04 00:57:41;;;;;;;65.85;34.83;;;;;;;1.05;100.00;101668.19;685075;28;1273;-61
2023/03/04 00:58:02;;;;;;;67.30;34.87;;;;;;;1.06;100.00;101685.44;687130;28;4616;-60
2023/03/04 00:58:22;;;;;;;66.68;34.88;;;;;;;1.09;100.00;101676.16;684304;28;1577;-60
2023/03/04 00:58:43;;;;;;;63.20;34.63;;;;;;;1.11;100.00;101683.94;680683;28;2772;-60
2023/03/04 00:59:03;;;;;;;63.42;34.47;;;;;;;1.11;100.00;101676.22;682421;28;1282;-60
2023/03/04 00:59:25;;;;;;;63.38;34.63;;;;;;;1.14;100.00;101678.97;682253;29;953;-60
2023/03/04 00:59:47;;;;;;;64.70;35.33;;;;;;;1.14;100.00;101678.97;682044;29;877;-61
2023/03/04 01:00:09;;;;;;;66.75;34.42;;;;;;;1.13;100.00;101675.50;682690;28;1000;-61
2023/03/04 01:00:29;;;;;;;62.90;34.45;;;;;;;1.21;100.00;101675.00;682310;28;1053;-61
2023/03/04 01:00:51;;;;;;;62.90;34.25;;;;;;;1.30;100.00;101678.94;684101;28;4332;-61
2023/03/04 01:01:12;;;;;;;63.35;34.00;;;;;;;1.38;100.00;101675.84;683318;28;974;-60
2023/03/04 01:01:32;;;;;;;61.73;33.57;;;;;;;1.40;100.00;101677.69;684749;28;2735;-61
2023/03/04 01:01:52;;;;;;;62.47;33.55;;;;;;;1.43;100.00;101677.81;686434;28;1135;-61
2023/03/04 01:02:13;;;;;;;66.27;34.73;;;;;;;1.38;100.00;101678.41;687570;28;980;-60
2023/03/04 01:02:33;;;;;;;64.93;34.65;;;;;;;1.33;100.00;101681.66;686455;28;992;-61
2023/03/04 01:02:54;;;;;;;62.07;34.30;;;;;;;1.32;100.00;101674.72;687856;28;718;-61
2023/03/04 01:03:14;;;;;;;62.97;34.05;;;;;;;1.31;100.00;101678.09;687551;28;965;-61
2023/03/04 01:03:35;;;;;;;64.17;33.80;;;;;;;1.30;100.00;101681.50;684485;28;1170;-61
2023/03/04 01:03:55;;;;;;;64.15;33.80;;;;;;;1.27;100.00;101683.03;682262;28;4546;-61
2023/03/04 01:04:16;;;;;;;62.97;34.28;;;;;;;1.25;100.00;101679.50;682027;29;952;-60
2023/03/04 01:04:37;;;;;;;61.93;33.70;;;;;;;1.22;100.00;101684.47;682695;28;901;-61
2023/03/04 01:04:57;;;;;;;62.58;33.78;;;;;;;1.19;100.00;101682.63;684996;28;912;-60
2023/03/04 01:05:18;;;;;;;61.17;33.90;;;;;;;1.15;100.00;101676.47;683336;28;1016;-61
2023/03/04 01:05:38;;;;;;;64.60;34.25;;;;;;;1.12;100.00;101681.47;682386;28;1318;-59
2023/03/04 01:05:59;;;;;;;63.65;34.42;;;;;;;1.11;100.00;101681.38;681912;29;2822;-61
2023/03/04 01:06:19;;;;;;;62.70;33.95;;;;;;;1.13;100.00;101684.91;679436;29;943;-60
2023/03/04 01:06:40;;;;;;;63.20;34.17;;;;;;;1.12;100.00;101678.91;679672;29;1157;-61
2023/03/04 01:07:00;;;;;;;60.38;33.80;;;;;;;1.10;100.00;101683.06;684399;28;4534;-60
2023/03/04 01:07:22;;;;;;;63.92;34.58;;;;;;;1.10;100.00;101680.50;681939;28;972;-61
2023/03/04 01:07:43;;;;;;;65.27;34.43;;;;;;;1.08;100.00;101679.56;682678;29;806;-61
2023/03/04 01:08:04;;;;;;;64.32;33.15;;;;;;;1.05;100.00;101684.53;682722;29;909;-61
2023/03/04 01:08:25;;;;;;;62.85;33.10;;;;;;;1.06;100.00;101682.84;682712;28;1490;-60
2023/03/04 01:08:47;;;;;;;63.92;34.78;;;;;;;1.05;100.00;101681.06;682979;28;1249;-62
2023/03/04 01:09:07;;;;;;;63.37;35.07;;;;;;;1.05;100.00;101681.06;682837;28;1295;-61
2023/03/04 01:09:27;;;;;;;64.60;34.83;;;;;;;1.04;100.00;101679.28;682046;29;933;-61
2023/03/04 01:09:48;;;;;;;67.77;35.33;;;;;;;1.02;100.00;101674.97;681991;28;4367;-61
2023/03/04 01:10:10;;;;;;;64.17;34.60;;;;;;;1.00;100.00;101679.16;682764;29;1020;-61
2023/03/04 01:10:31;;;;;;;62.72;34.13;;;;;;;1.02;100.00;101679.22;681673;28;1135;-61
2023/03/04 01:10:52;;;;;;;65.25;34.50;;;;;;;1.06;100.00;101676.00;685299;28;1276;-60
2023/03/04 01:11:13;;;;;;;64.38;34.63;;;;;;;1.12;100.00;101683.13;687551;28;1973;-60
2023/03/04 01:11:34;;;;;;;64.35;34.05;;;;;;;1.14;100.00;101682.41;687368;28;1319;-60
2023/03/04 01:11:54;;;;;;;66.30;34.13;;;;;;;1.15;100.00;101685.88;686977;28;1293;-61
2023/03/04 01:12:14;;;;;;;65.47;34.60;;;;;;;1.14;100.00;101674.69;684752;28;1134;-61
2023/03/04 01:12:35;;;;;;;61.40;33.57;;;;;;;1.13;100.00;101682.34;684874;28;1051;-61
2023/03/04 01:12:56;;;;;;;62.03;33.50;;;;;;;1.12;100.00;101680.56;684490;28;4407;-61
2023/03/04 01:13:17;;;;;;;64.68;33.63;;;;;;;1.11;100.00;101676.22;684481;28;2824;-61
2023/03/04 01:13:38;;;;;;;63.65;33.65;;;;;;;1.10;100.00;101683.06;687648;28;1000;-61
2023/03/04 01:13:59;;;;;;;64.28;33.75;;;;;;;1.10;100.00;101677.91;684893;28;1008;-60
2023/03/04 01:14:19;;;;;;;67.95;34.75;;;;;;;1.09;100.00;101672.69;685043;28;1479;-61
2023/03/04 01:14:40;;;;;;;65.90;34.80;;;;;;;1.07;100.00;101671.75;681939;28;1460;-61
2023/03/04 01:15:00;;;;;;;63.10;34.90;;;;;;;1.05;100.00;101673.34;682612;29;774;-60
2023/03/04 01:15:21;;;;;;;65.68;35.05;;;;;;;1.06;100.00;101675.13;678187;29;1438;-60
2023/03/04 01:15:41;;;;;;;65.00;35.78;;;;;;;1.06;100.00;101672.56;679629;29;939;-61
2023/03/04 01:16:03;;;;;;;64.70;34.27;;;;;;;1.05;100.00;101669.06;680876;28;4583;-61
2023/03/04 01:16:25;;;;;;;64.20;34.25;;;;;;;1.10;100.00;101674.47;681461;28;3599;-61
2023/03/04 01:16:45;;;;;;;65.27;34.33;;;;;;;1.12;100.00;101680.56;682330;29;983;-61
2023/03/04 01:17:06;;;;;;;65.27;34.30;;;;;;;1.13;100.00;101677.19;682528;28;993;-60
2023/03/04 01:17:26;;;;;;;66.45;34.38;;;;;;;1.13;100.00;101670.34;681427;29;1539;-61
2023/03/04 01:17:47;;;;;;;63.23;33.03;;;;;;;1.11;100.00;101677.13;682581;29;1158;-60
2023/03/04 01:18:09;;;;;;;64.93;33.92;;;;;;;1.09;100.00;101676.16;682508;28;1613;-61
2023/03/04 01:18:29;;;;;;;63.45;35.20;;;;;;;1.09;100.00;101675.28;682384;28;1137;-60
2023/03/04 01:18:50;;;;;;;62.55;34.30;;;;;;;1.06;100.00;101669.97;684103;28;4399;-60
2023/03/04 01:19:10;;;;;;;63.23;34.30;;;;;;;1.05;100.00;101670.78;685371;28;1271;-60
2023/03/04 01:19:31;;;;;;;63.50;33.35;;;;;;;1.04;100.00;101667.31;684450;28;1052;-61
2023/03/04 01:19:52;;;;;;;62.83;33.03;;;;;;;1.04;100.00;101671.56;685177;28;867;-60
2023/03/04 01:20:14;;;;;;;63.92;33.65;;;;;;;1.05;100.00;101673.34;682755;28;970;-61
2023/03/04 01:20:35;;;;;;;65.20;34.22;;;;;;;1.06;100.00;101665.69;681816;29;2597;-60
2023/03/04 01:20:57;;;;;;;62.33;33.42;;;;;;;1.07;100.00;101671.75;681762;29;1006;-61
2023/03/04 01:21:17;;;;;;;62.92;33.00;;;;;;;1.07;100.00;101666.59;682546;28;973;-61
2023/03/04 01:21:37;;;;;;;63.10;33.60;;;;;;;1.09;100.00;101672.69;683617;28;888;-60
2023/03/04 01:21:58;;;;;;;63.97;34.17;;;;;;;1.14;100.00;101668.66;680371;28;4675;-60
2023/03/04 01:22:18;;;;;;;63.03;33.85;;;;;;;1.21;100.00;101673.31;682229;28;1169;-61
2023/03/04 01:22:39;;;;;;;60.70;33.37;;;;;;;1.21;100.00;101668.16;685272;28;897;-61
2023/03/04 01:22:59;;;;;;;60.90;33.08;;;;;;;1.17;100.00;101674.84;685214;28;801;-60
2023/03/04 01:23:19;;;;;;;59.87;32.90;;;;;;;1.16;100.00;101664.47;684193;28;2698;-62
2023/03/04 01:23:40;;;;;;;61.70;32.40;;;;;;;1.15;100.00;101670.41;681892;28;1233;-61
2023/03/04 01:24:02;;;;;;;67.35;33.40;;;;;;;1.13;100.00;101666.88;680214;29;1434;-61
2023/03/04 01:24:22;;;;;;;68.32;34.75;;;;;;;1.11;100.00;101668.50;682520;28;916;-61
2023/03/04 01:24:43;;;;;;;63.50;34.03;;;;;;;1.11;100.00;101671.06;682643;28;898;-61
2023/03/04 01:25:05;;;;;;;64.45;34.67;;;;;;;1.10;100.00;101672.78;682229;28;4436;-61
2023/03/04 01:25:26;;;;;;;67.07;35.83;;;;;;;1.10;100.00;101666.75;682701;28;1016;-60
2023/03/04 01:25:46;;;;;;;64.77;34.37;;;;;;;1.07;100.00;101666.59;682487;28;1349;-61
2023/03/04 01:26:07;;;;;;;61.00;34.13;;;;;;;1.07;100.00;101674.31;682649;28;1250;-61
2023/03/04 01:26:27;;;;;;;62.07;34.63;;;;;;;1.05;100.00;101668.19;682967;28;1198;-61
2023/03/04 01:26:47;;;;;;;61.07;33.97;;;;;;;1.05;100.00;101668.19;682518;28;956;-61
2023/03/04 01:27:08;;;;;;;62.23;34.43;;;;;;;1.06;100.00;101664.81;683715;28;2539;-61
2023/03/04 01:27:28;;;;;;;64.25;34.33;;;;;;;1.08;100.00;101668.34;685225;28;1132;-61
2023/03/04 01:27:48;;;;;;;63.00;34.23;;;;;;;1.06;100.00;101660.53;686566;28;4479;-61
2023/03/04 01:28:10;;;;;;;63.28;34.72;;;;;;;1.05;100.00;101663.91;689617;28;897;-61
2023/03/04 01:28:34;;;;;;;64.22;34.80;;;;;;;1.05;100.00;101663.03;689333;28;1355;-61
2023/03/04 01:28:55;;;;;;;63.92;34.05;;;;;;;1.06;100.00;101660.53;688708;28;1109;-61
2023/03/04 01:29:16;;;;;;;66.27;34.60;;;;;;;1.06;100.00;101664.81;689271;28;1490;-61
2023/03/04 01:29:36;;;;;;;62.13;34.15;;;;;;;1.06;100.00;101664.81;687401;28;2761;-61
2023/03/04 01:29:57;;;;;;;63.93;34.13;;;;;;;1.05;100.00;101665.63;687631;28;910;-61
2023/03/04 01:30:17;;;;;;;60.72;33.55;;;;;;;1.05;100.00;101663.03;686929;28;1051;-61
2023/03/04 01:30:38;;;;;;;61.67;33.67;;;;;;;1.07;100.00;101666.59;684888;28;1085;-61
2023/03/04 01:30:58;;;;;;;63.63;33.40;;;;;;;1.10;100.00;101666.75;685030;28;4297;-61
2023/03/04 01:31:18;;;;;;;62.27;33.13;;;;;;;1.11;100.00;101673.63;684047;28;1907;-61
2023/03/04 01:31:39;;;;;;;63.37;34.10;;;;;;;1.09;100.00;101665.84;684922;28;913;-61
2023/03/04 01:31:59;;;;;;;62.95;33.63;;;;;;;1.09;100.00;101665.84;681652;28;1079;-61
2023/03/04 01:32:19;;;;;;;63.10;33.43;;;;;;;1.10;100.00;101661.59;681700;28;2774;-61
2023/03/04 01:32:42;;;;;;;60.47;32.92;;;;;;;1.11;100.00;101665.91;681725;29;1508;-60
2023/03/04 01:33:03;;;;;;;60.53;33.28;;;;;;;1.09;100.00;101662.38;681248;29;857;-61
2023/03/04 01:33:23;;;;;;;60.87;32.77;;;;;;;1.08;100.00;101658.94;683844;28;932;-61
2023/03/04 01:33:43;;;;;;;65.47;33.00;;;;;;;1.07;100.00;101661.44;683248;28;806;-61
2023/03/04 01:34:04;;;;;;;64.63;33.85;;;;;;;1.09;100.00;101663.25;683104;28;4486;-60
2023/03/04 01:34:24;;;;;;;63.00;34.20;;;;;;;1.09;100.00;101662.38;684804;28;1125;-60
2023/03/04 01:34:44;;;;;;;64.97;34.72;;;;;;;1.07;100.00;101653.72;687985;28;825;-61
2023/03/04 01:35:05;;;;;;;66.47;34.20;;;;;;;1.06;100.00;101659.66;687530;28;1078;-60
2023/03/04 01:35:26;;;;;;;67.18;34.58;;;;;;;1.06;100.00;101664.81;686831;28;933;-61
2023/03/04 01:35:46;;;;;;;68.95;35.22;;;;;;;1.06;100.00;101664.81;685113;28;1194;-60
2023/03/04 01:36:07;;;;;;;64.67;34.47;;;;;;;1.06;100.00;101662.25;684291;28;2934;-61